createdAt,value
2018-05-29T00:01:03.797Z,50.63
2018-05-29T00:03:31.607Z,51.80
2018-05-29T00:05:59.801Z,52.53
2018-05-29T00:08:27.378Z,52.80
2018-05-29T00:10:54.988Z,54.50
2018-05-29T00:13:22.659Z,54.60
2018-05-29T00:15:50.227Z,52.93
2018-05-29T00:18:17.917Z,53.30
2018-05-29T00:20:45.492Z,55.77
2018-05-29T00:23:13.070Z,55.77
2018-05-29T00:25:40.740Z,54.50
2018-05-29T00:28:08.581Z,55.50
2018-05-29T00:30:36.241Z,58.10
2018-05-29T00:33:03.816Z,58.83
2018-05-29T00:35:31.531Z,57.10
2018-05-29T00:37:59.107Z,58.50
2018-05-29T00:40:26.682Z,62.03
2018-05-29T00:42:54.290Z,62.10
2018-05-29T00:45:21.861Z,65.20
2018-05-29T00:47:49.771Z,63.23
2018-05-29T00:50:17.355Z,62.67
2018-05-29T00:52:57.839Z,64.00
2018-05-29T00:55:37.079Z,64.40
2018-05-29T00:58:04.696Z,66.27
2018-05-29T01:00:32.659Z,69.07
2018-05-29T01:03:00.230Z,66.23
2018-05-29T01:05:27.800Z,66.53
2018-05-29T01:07:55.413Z,71.10
2018-05-29T01:10:22.996Z,69.27
2018-05-29T01:15:43.459Z,69.00
2018-05-29T01:18:11.442Z,69.73
2018-05-29T01:20:39.030Z,69.70
2018-05-29T01:23:06.594Z,74.13
2018-05-29T01:25:34.248Z,70.83
2018-05-29T01:28:01.848Z,73.60
2018-05-29T01:30:29.474Z,70.87
2018-05-29T01:33:05.061Z,75.00
2018-05-29T01:35:32.660Z,73.00
2018-05-29T01:38:00.536Z,74.60
2018-05-29T01:40:28.134Z,75.17
2018-05-29T01:42:55.767Z,73.60
2018-05-29T01:45:23.712Z,71.40
2018-05-29T01:47:51.305Z,73.40
2018-05-29T01:50:18.886Z,73.77
2018-05-29T01:52:46.733Z,71.87
2018-05-29T01:55:14.338Z,71.23
2018-05-29T01:57:42.084Z,74.03
2018-05-29T02:00:10.072Z,68.00
2018-05-29T02:02:37.742Z,76.80
2018-05-29T02:05:05.313Z,75.50
2018-05-29T02:07:33.449Z,70.93
2018-05-29T02:10:01.030Z,70.20
2018-05-29T02:12:28.601Z,76.40
2018-05-29T02:14:56.462Z,76.57
2018-05-29T02:17:24.052Z,77.83
2018-05-29T02:19:51.778Z,74.83
2018-05-29T02:22:19.409Z,77.47
2018-05-29T02:24:46.997Z,71.77
2018-05-29T02:27:14.584Z,72.50
2018-05-29T02:29:42.258Z,73.37
2018-05-29T02:32:10.088Z,73.63
2018-05-29T02:34:37.670Z,75.47
2018-05-29T02:37:05.320Z,73.50
2018-05-29T02:39:32.915Z,72.20
2018-05-29T02:42:00.556Z,74.13
2018-05-29T02:44:28.550Z,77.77
2018-05-29T02:46:56.124Z,74.80
2018-05-29T02:49:23.995Z,73.77
2018-05-29T02:51:51.649Z,74.07
2018-05-29T02:54:19.520Z,75.33
2018-05-29T02:56:47.220Z,76.07
2018-05-29T02:59:14.804Z,75.30
2018-05-29T03:01:42.784Z,75.50
2018-05-29T03:04:10.426Z,75.20
2018-05-29T03:06:38.342Z,76.47
2018-05-29T03:09:06.823Z,79.03
2018-05-29T03:11:34.491Z,73.97
2018-05-29T03:14:02.597Z,74.00
2018-05-29T03:16:30.287Z,75.20
2018-05-29T03:18:57.864Z,78.20
2018-05-29T03:21:25.516Z,71.70
2018-05-29T03:23:53.093Z,79.40
2018-05-29T03:26:20.920Z,78.70
2018-05-29T03:28:48.570Z,76.17
2018-05-29T03:31:16.265Z,76.43
2018-05-29T03:33:43.919Z,79.10
2018-05-29T03:36:11.864Z,82.57
2018-05-29T03:38:39.427Z,77.83
2018-05-29T03:41:07.008Z,79.37
2018-05-29T03:43:35.117Z,74.00
2018-05-29T03:46:02.693Z,74.67
2018-05-29T03:48:30.267Z,73.10
2018-05-29T03:50:58.012Z,81.40
2018-05-29T03:53:25.584Z,80.00
2018-05-29T03:55:53.431Z,81.37
2018-05-29T03:58:21.031Z,80.43
2018-05-29T04:00:48.623Z,76.63
2018-05-29T04:03:16.557Z,76.13
2018-05-29T04:05:44.131Z,73.37
2018-05-29T04:08:11.757Z,72.57
2018-05-29T04:10:39.602Z,73.80
2018-05-29T04:13:07.174Z,73.90
2018-05-29T04:15:34.771Z,74.17
2018-05-29T04:18:02.408Z,75.67
2018-05-29T04:20:30.331Z,76.27
2018-05-29T04:22:57.911Z,70.03
2018-05-29T04:25:25.525Z,69.77
2018-05-29T04:27:53.604Z,73.30
2018-05-29T04:30:21.180Z,76.20
2018-05-29T04:32:49.044Z,75.90
2018-05-29T04:35:16.641Z,72.57
2018-05-29T04:37:44.604Z,72.93
2018-05-29T04:40:12.265Z,72.47
2018-05-29T04:42:39.830Z,65.43
2018-05-29T04:45:08.081Z,72.50
2018-05-29T04:47:35.719Z,67.47
2018-05-29T04:50:03.287Z,69.80
2018-05-29T04:52:31.277Z,70.47
2018-05-29T04:54:58.923Z,73.80
2018-05-29T04:57:26.502Z,72.20
2018-05-29T04:59:54.106Z,69.90
2018-05-29T05:02:21.940Z,71.90
2018-05-29T05:04:50.220Z,71.23
2018-05-29T05:07:18.040Z,70.13
2018-05-29T05:09:45.851Z,70.20
2018-05-29T05:12:13.446Z,72.57
2018-05-29T05:14:41.046Z,67.33
2018-05-29T05:17:08.679Z,65.23
2018-05-29T05:19:36.555Z,66.73
2018-05-29T05:22:04.206Z,67.43
2018-05-29T05:24:31.788Z,67.73
2018-05-29T05:26:59.688Z,69.03
2018-05-29T05:29:27.342Z,65.37
2018-05-29T05:31:54.990Z,68.50
2018-05-29T05:34:22.559Z,67.83
2018-05-29T05:36:50.181Z,62.90
2018-05-29T05:39:17.794Z,63.03
2018-05-29T05:41:45.934Z,67.23
2018-05-29T05:44:13.651Z,63.20
2018-05-29T05:46:41.226Z,64.70
2018-05-29T05:49:08.819Z,67.87
2018-05-29T05:51:36.846Z,67.20
2018-05-29T05:54:04.429Z,64.33
2018-05-29T05:56:32.099Z,64.97
2018-05-29T05:58:59.714Z,64.00
2018-05-29T06:01:27.301Z,62.27
2018-05-29T06:03:55.257Z,57.77
2018-05-29T06:06:22.846Z,59.30
2018-05-29T06:08:50.427Z,61.17
2018-05-29T06:11:18.578Z,60.83
2018-05-29T06:13:46.216Z,61.40
2018-05-29T06:16:13.813Z,58.43
2018-05-29T06:18:41.573Z,60.93
2018-05-29T06:21:09.720Z,56.63
2018-05-29T06:23:37.285Z,61.40
2018-05-29T06:26:04.946Z,58.80
2018-05-29T06:28:32.931Z,61.03
2018-05-29T06:31:00.581Z,55.03
2018-05-29T06:33:28.171Z,55.73
2018-05-29T06:35:55.850Z,52.87
2018-05-29T06:38:23.817Z,56.40
2018-05-29T06:40:51.417Z,53.13
2018-05-29T06:43:18.999Z,57.30
2018-05-29T06:45:46.740Z,53.77
2018-05-29T06:48:14.341Z,52.97
2018-05-29T06:50:41.971Z,53.30
2018-05-29T06:53:09.657Z,51.83
2018-05-29T06:55:37.307Z,50.67
2018-05-29T06:58:04.901Z,53.87
2018-05-29T07:00:32.508Z,51.30
2018-05-29T07:03:00.127Z,51.73
2018-05-29T07:05:28.296Z,49.80
2018-05-29T07:07:56.187Z,50.87
2018-05-29T07:10:24.055Z,48.00
2018-05-29T07:12:51.669Z,49.83
2018-05-29T07:15:19.557Z,48.07
2018-05-29T07:17:47.138Z,48.67
2018-05-29T07:20:14.746Z,48.73
2018-05-29T07:22:42.785Z,50.00
2018-05-29T07:25:10.433Z,51.30
2018-05-29T07:27:38.320Z,47.77
2018-05-29T07:30:05.957Z,48.70
2018-05-29T07:32:34.012Z,47.70
2018-05-29T07:35:01.601Z,47.63
2018-05-29T07:37:29.191Z,44.67
2018-05-29T07:39:57.188Z,46.43
2018-05-29T07:42:24.771Z,47.93
2018-05-29T07:44:52.372Z,44.87
2018-05-29T07:47:20.389Z,44.23
2018-05-29T07:49:48.048Z,45.20
2018-05-29T07:52:15.843Z,44.90
2018-05-29T07:54:43.512Z,43.97
2018-05-29T07:57:11.771Z,45.10
2018-05-29T07:59:40.241Z,45.40
2018-05-29T08:02:07.821Z,44.13
2018-05-29T08:04:35.756Z,42.53
2018-05-29T08:07:03.350Z,43.87
2018-05-29T08:09:30.927Z,42.33
2018-05-29T08:11:58.684Z,42.43
2018-05-29T08:14:26.309Z,43.20
2018-05-29T08:16:54.248Z,42.70
2018-05-29T08:19:22.188Z,43.13
2018-05-29T08:21:49.900Z,41.10
2018-05-29T08:24:17.617Z,41.47
2018-05-29T08:26:45.277Z,44.30
2018-05-29T08:29:13.039Z,41.80
2018-05-29T08:31:41.527Z,42.37
2018-05-29T08:34:09.125Z,41.57
2018-05-29T08:36:36.722Z,40.17
2018-05-29T08:39:04.418Z,38.43
2018-05-29T08:41:32.033Z,41.77
2018-05-29T08:43:59.945Z,38.30
2018-05-29T08:46:28.020Z,36.50
2018-05-29T08:48:55.773Z,34.43
2018-05-29T08:51:23.394Z,39.70
2018-05-29T08:53:51.012Z,34.10
2018-05-29T08:56:18.752Z,35.30
2018-05-29T08:58:46.781Z,34.57
2018-05-29T09:01:14.436Z,34.20
2018-05-29T09:03:42.026Z,37.40
2018-05-29T09:06:09.774Z,35.83
2018-05-29T09:08:37.381Z,33.27
2018-05-29T09:11:05.210Z,36.70
2018-05-29T09:13:32.829Z,35.80
2018-05-29T09:16:00.449Z,34.00
2018-05-29T09:18:28.545Z,30.27
2018-05-29T09:20:56.200Z,32.53
2018-05-29T09:23:23.805Z,31.00
2018-05-29T09:25:51.645Z,30.70
2018-05-29T09:28:19.533Z,32.07
2018-05-29T09:30:47.182Z,34.20
2018-05-29T09:33:14.830Z,32.83
2018-05-29T09:35:42.454Z,31.90
2018-05-29T09:38:10.043Z,31.50
2018-05-29T09:40:37.718Z,30.10
2018-05-29T09:43:05.603Z,29.97
2018-05-29T09:45:33.233Z,30.80
2018-05-29T09:48:00.829Z,32.10
2018-05-29T09:50:28.499Z,27.47
2018-05-29T09:52:56.235Z,29.53
2018-05-29T09:55:23.877Z,25.50
2018-05-29T09:57:51.466Z,27.57
2018-05-29T10:00:24.622Z,30.93
2018-05-29T10:02:52.511Z,27.47
2018-05-29T10:05:20.347Z,29.00
2018-05-29T10:07:47.958Z,26.90
2018-05-29T10:10:15.600Z,28.90
2018-05-29T10:12:43.234Z,28.37
2018-05-29T10:15:10.939Z,27.30
2018-05-29T10:17:38.538Z,30.47
2018-05-29T10:20:06.601Z,29.97
2018-05-29T10:22:34.245Z,27.60
2018-05-29T10:25:01.817Z,23.37
2018-05-29T10:27:29.786Z,17.47
2018-05-29T10:29:57.374Z,22.70
2018-05-29T10:32:25.010Z,21.20
2018-05-29T10:34:52.675Z,22.07
2018-05-29T10:37:20.323Z,21.50
2018-05-29T10:39:47.937Z,22.00
2018-05-29T10:42:15.844Z,19.90
2018-05-29T10:44:43.445Z,19.13
2018-05-29T10:47:11.127Z,17.43
2018-05-29T10:49:38.841Z,16.97
2018-05-29T10:52:06.923Z,16.20
2018-05-29T10:54:34.503Z,14.90
2018-05-29T10:57:02.122Z,13.97
2018-05-29T10:59:29.708Z,17.17
2018-05-29T11:01:57.324Z,13.93
2018-05-29T11:04:24.918Z,14.83
2018-05-29T11:06:52.538Z,13.67
2018-05-29T11:09:20.213Z,11.70
2018-05-29T11:11:47.927Z,13.83
2018-05-29T11:14:15.595Z,12.83
2018-05-29T11:16:43.213Z,10.57
2018-05-29T11:19:11.216Z,11.13
2018-05-29T11:24:31.290Z,11.23
2018-05-29T11:26:58.937Z,10.07
2018-05-29T11:29:26.538Z,10.33
2018-05-29T11:31:54.262Z,10.53
2018-05-29T11:34:22.109Z,10.03
2018-05-29T11:36:49.704Z,9.80
2018-05-29T11:39:17.413Z,9.87
2018-05-29T11:41:45.257Z,9.77
2018-05-29T11:44:13.093Z,9.90
2018-05-29T11:46:40.779Z,10.27
2018-05-29T11:49:08.488Z,10.20
2018-05-29T11:51:36.120Z,9.73
2018-05-29T11:54:03.979Z,9.40
2018-05-29T11:56:31.573Z,10.37
2018-05-29T11:58:59.597Z,10.97
2018-05-29T12:01:27.170Z,12.00
2018-05-29T12:03:54.740Z,11.17
2018-05-29T12:06:22.376Z,10.67
2018-05-29T12:08:49.978Z,9.70
2018-05-29T12:11:18.037Z,9.53
2018-05-29T12:13:45.656Z,9.90
2018-05-29T12:16:13.498Z,11.70
2018-05-29T12:18:41.600Z,11.70
2018-05-29T12:21:09.184Z,10.70
2018-05-29T12:23:37.050Z,10.47
2018-05-29T12:26:04.970Z,11.37
2018-05-29T12:28:32.596Z,10.23
2018-05-29T12:31:00.217Z,11.00
2018-05-29T12:33:27.875Z,10.83
2018-05-29T12:35:55.873Z,10.90
2018-05-29T12:38:23.655Z,11.47
2018-05-29T12:40:51.247Z,10.97
2018-05-29T12:43:19.260Z,9.90
2018-05-29T12:45:46.892Z,11.97
2018-05-29T12:48:14.539Z,10.20
2018-05-29T12:50:42.843Z,10.67
2018-05-29T12:53:10.433Z,12.23
2018-05-29T12:55:38.034Z,11.70
2018-05-29T12:58:05.677Z,10.43
2018-05-29T13:00:33.318Z,10.73
2018-05-29T13:03:00.949Z,11.00
2018-05-29T13:05:29.410Z,10.43
2018-05-29T13:07:57.359Z,11.60
2018-05-29T13:10:24.952Z,10.47
2018-05-29T13:12:52.596Z,10.10
2018-05-29T13:15:20.225Z,9.13
2018-05-29T13:17:47.890Z,9.60
2018-05-29T13:20:15.504Z,9.30
2018-05-29T13:22:43.141Z,9.20
2018-05-29T13:25:10.765Z,9.87
2018-05-29T13:27:38.789Z,9.80
2018-05-29T13:30:06.450Z,9.77
2018-05-29T13:32:34.063Z,11.30
2018-05-29T13:35:02.035Z,11.13
2018-05-29T13:37:29.963Z,10.93
2018-05-29T13:39:58.011Z,11.03
2018-05-29T13:42:25.972Z,9.70
2018-05-29T13:44:53.803Z,11.60
2018-05-29T13:47:21.443Z,10.97
2018-05-29T13:49:49.289Z,11.53
2018-05-29T13:52:16.927Z,11.37
2018-05-29T13:54:44.581Z,11.80
2018-05-29T13:57:12.437Z,11.67
2018-05-29T13:59:40.075Z,11.40
2018-05-29T14:02:08.560Z,10.30
2018-05-29T14:04:36.175Z,11.70
2018-05-29T14:07:03.771Z,9.80
2018-05-29T14:09:32.061Z,10.17
2018-05-29T14:11:59.775Z,8.60
2018-05-29T14:14:27.371Z,9.00
2018-05-29T14:16:54.991Z,10.37
2018-05-29T14:19:22.649Z,9.60
2018-05-29T14:21:50.487Z,10.83
2018-05-29T14:24:18.107Z,9.80
2018-05-29T14:26:45.701Z,10.13
2018-05-29T14:29:13.639Z,9.47
2018-05-29T14:31:41.221Z,9.17
2018-05-29T14:34:08.834Z,9.17
2018-05-29T14:36:37.022Z,9.23
2018-05-29T14:39:07.433Z,9.73
2018-05-29T14:41:35.025Z,8.70
2018-05-29T14:44:03.195Z,7.63
2018-05-29T14:46:31.016Z,8.43
2018-05-29T14:48:58.925Z,8.83
2018-05-29T14:51:27.153Z,9.80
2018-05-29T14:53:54.756Z,8.13
2018-05-29T14:56:22.661Z,8.50
2018-05-29T14:58:50.737Z,7.97
2018-05-29T15:01:18.339Z,8.30
2018-05-29T15:03:45.940Z,7.57
2018-05-29T15:06:14.013Z,8.60
2018-05-29T15:08:41.684Z,8.53
2018-05-29T15:11:09.313Z,8.83
2018-05-29T15:13:37.284Z,8.83
2018-05-29T15:16:04.879Z,8.90
2018-05-29T15:18:32.566Z,8.57
2018-05-29T15:21:00.203Z,8.40
2018-05-29T15:23:27.811Z,7.70
2018-05-29T15:25:55.433Z,8.47
2018-05-29T15:28:23.316Z,8.73
2018-05-29T15:30:50.952Z,8.80
2018-05-29T15:33:18.547Z,9.20
2018-05-29T15:35:46.379Z,9.20
2018-05-29T15:38:13.992Z,7.83
2018-05-29T15:40:41.940Z,9.40
2018-05-29T15:43:09.531Z,7.53
2018-05-29T15:45:37.148Z,7.27
2018-05-29T15:48:05.080Z,7.77
2018-05-29T15:50:33.907Z,7.20
2018-05-29T15:53:02.016Z,7.47
2018-05-29T15:55:29.734Z,7.90
2018-05-29T15:57:57.427Z,7.77
2018-05-29T16:00:25.017Z,7.23
2018-05-29T16:02:53.044Z,7.40
2018-05-29T16:05:20.643Z,7.73
2018-05-29T16:07:48.341Z,7.40
2018-05-29T16:10:15.999Z,7.60
2018-05-29T16:12:43.612Z,7.07
2018-05-29T16:15:11.225Z,7.87
2018-05-29T16:17:39.208Z,7.07
2018-05-29T16:20:06.803Z,6.57
2018-05-29T16:22:34.379Z,7.30
2018-05-29T16:25:01.991Z,8.10
2018-05-29T16:27:29.583Z,7.80
2018-05-29T16:29:57.463Z,7.57
2018-05-29T16:32:25.038Z,7.07
2018-05-29T16:34:52.642Z,7.77
2018-05-29T16:37:20.191Z,7.07
2018-05-29T16:39:47.767Z,7.57
2018-05-29T16:42:15.394Z,6.93
2018-05-29T16:44:42.974Z,8.47
2018-05-29T16:47:10.647Z,7.23
2018-05-29T16:49:38.492Z,8.50
2018-05-29T16:52:06.087Z,8.77
2018-05-29T16:54:34.000Z,7.80
2018-05-29T16:57:01.617Z,7.57
2018-05-29T16:59:29.266Z,7.53
2018-05-29T17:01:56.871Z,8.17
2018-05-29T17:04:24.484Z,9.00
2018-05-29T17:06:52.139Z,8.03
2018-05-29T17:09:19.756Z,8.20
2018-05-29T17:11:47.413Z,7.80
2018-05-29T17:14:15.135Z,8.13
2018-05-29T17:16:42.754Z,10.00
2018-05-29T17:19:10.428Z,9.60
2018-05-29T17:21:38.392Z,9.80
2018-05-29T17:24:05.989Z,9.10
2018-05-29T17:26:33.955Z,9.20
2018-05-29T17:29:01.587Z,10.83
2018-05-29T17:31:29.390Z,10.63
2018-05-29T17:33:56.983Z,9.97
2018-05-29T17:36:24.827Z,11.03
2018-05-29T17:38:52.777Z,10.03
2018-05-29T17:41:20.374Z,11.70
2018-05-29T17:43:48.066Z,10.83
2018-05-29T17:46:15.711Z,11.13
2018-05-29T17:48:43.950Z,12.47
2018-05-29T17:51:11.794Z,12.00
2018-05-29T17:53:39.440Z,11.20
2018-05-29T17:56:07.462Z,12.37
2018-05-29T17:58:35.337Z,12.40
2018-05-29T18:01:02.947Z,12.07
2018-05-29T18:03:30.946Z,11.00
2018-05-29T18:05:58.553Z,11.90
2018-05-29T18:08:26.187Z,11.60
2018-05-29T18:10:53.949Z,12.07
2018-05-29T18:13:21.624Z,10.50
2018-05-29T18:15:49.589Z,10.80
2018-05-29T18:18:17.507Z,11.30
2018-05-29T18:20:45.167Z,10.03
2018-05-29T18:23:12.846Z,10.53
2018-05-29T18:25:40.422Z,9.70
2018-05-29T18:28:07.980Z,9.77
2018-05-29T18:30:35.597Z,9.60
2018-05-29T18:33:03.206Z,12.40
2018-05-29T18:35:31.215Z,12.73
2018-05-29T18:37:58.784Z,10.47
2018-05-29T18:40:26.357Z,10.43
2018-05-29T18:42:54.248Z,11.07
2018-05-29T18:45:22.810Z,10.10
2018-05-29T18:47:50.371Z,10.33
2018-05-29T18:50:18.208Z,9.73
2018-05-29T18:52:45.868Z,9.60
2018-05-29T18:55:13.439Z,9.87
2018-05-29T18:57:41.144Z,11.10
2018-05-29T19:00:08.744Z,9.27
2018-05-29T19:02:36.774Z,10.40
2018-05-29T19:05:04.333Z,9.23
2018-05-29T19:07:31.903Z,12.10
2018-05-29T19:09:59.677Z,8.60
2018-05-29T19:12:27.327Z,10.80
2018-05-29T19:14:54.972Z,11.37
2018-05-29T19:17:22.572Z,12.13
2018-05-29T19:19:50.219Z,13.63
2018-05-29T19:22:17.844Z,13.70
2018-05-29T19:24:45.418Z,14.20
2018-05-29T19:27:13.154Z,12.67
2018-05-29T19:29:40.717Z,15.13
2018-05-29T19:32:08.609Z,12.47
2018-05-29T19:34:36.877Z,13.60
2018-05-29T19:37:04.477Z,12.77
2018-05-29T19:39:32.343Z,12.70
2018-05-29T19:42:00.192Z,12.70
2018-05-29T19:44:28.153Z,13.23
2018-05-29T19:46:55.885Z,13.30
2018-05-29T19:49:23.748Z,13.70
2018-05-29T19:51:51.566Z,12.43
2018-05-29T19:54:19.259Z,14.60
2018-05-29T19:56:46.838Z,14.27
2018-05-29T19:59:14.836Z,13.77
2018-05-29T20:01:42.585Z,13.50
2018-05-29T20:04:10.176Z,12.30
2018-05-29T20:06:37.857Z,13.17
2018-05-29T20:09:06.382Z,12.37
2018-05-29T20:11:34.465Z,13.10
2018-05-29T20:14:02.067Z,12.27
2018-05-29T20:16:29.791Z,12.60
2018-05-29T20:18:57.870Z,13.70
2018-05-29T20:21:25.479Z,13.67
2018-05-29T20:23:53.287Z,14.07
2018-05-29T20:26:21.115Z,14.00
2018-05-29T20:28:48.688Z,13.43
2018-05-29T20:31:16.661Z,13.40
2018-05-29T20:33:44.462Z,13.00
2018-05-29T20:36:12.036Z,13.27
2018-05-29T20:38:39.743Z,14.43
2018-05-29T20:41:07.529Z,13.50
2018-05-29T20:43:35.158Z,12.40
2018-05-29T20:46:02.753Z,11.60
2018-05-29T20:48:30.334Z,12.60
2018-05-29T20:50:58.225Z,11.50
2018-05-29T20:53:26.077Z,12.90
2018-05-29T20:55:53.654Z,12.20
2018-05-29T20:58:21.593Z,11.80
2018-05-29T21:00:49.161Z,12.03
2018-05-29T21:03:16.720Z,12.00
2018-05-29T21:05:44.644Z,11.97
2018-05-29T21:08:12.212Z,11.13
2018-05-29T21:10:39.781Z,12.27
2018-05-29T21:13:07.605Z,11.60
2018-05-29T21:15:35.238Z,11.43
2018-05-29T21:18:03.132Z,11.63
2018-05-29T21:20:30.695Z,10.80
2018-05-29T21:22:58.502Z,10.77
2018-05-29T21:25:26.147Z,11.03
2018-05-29T21:27:53.722Z,11.30
2018-05-29T21:30:21.316Z,11.10
2018-05-29T21:32:48.927Z,11.93
2018-05-29T21:35:16.779Z,13.43
2018-05-29T21:37:44.360Z,12.67
2018-05-29T21:40:12.188Z,11.90
2018-05-29T21:42:40.769Z,12.57
2018-05-29T21:45:08.853Z,11.90
2018-05-29T21:47:36.419Z,11.97
2018-05-29T21:50:03.975Z,13.27
2018-05-29T21:52:31.940Z,12.90
2018-05-29T21:54:59.504Z,11.47
2018-05-29T21:57:27.151Z,12.30
2018-05-29T21:59:55.091Z,11.97
2018-05-29T22:02:22.716Z,10.83
2018-05-29T22:04:50.285Z,10.70
2018-05-29T22:07:17.881Z,11.20
2018-05-29T22:09:45.478Z,11.10
2018-05-29T22:12:13.054Z,12.13
2018-05-29T22:14:40.655Z,11.17
2018-05-29T22:17:08.500Z,10.90
2018-05-29T22:19:36.127Z,11.63
2018-05-29T22:22:03.735Z,11.87
2018-05-29T22:24:31.749Z,11.33
2018-05-29T22:26:59.319Z,11.20
2018-05-29T22:29:26.940Z,9.97
2018-05-29T22:31:54.528Z,12.83
2018-05-29T22:34:22.328Z,13.07
2018-05-29T22:36:49.920Z,13.03
2018-05-29T22:39:17.546Z,13.27
2018-05-29T22:41:45.192Z,11.60
2018-05-29T22:44:12.887Z,13.13
2018-05-29T22:46:40.457Z,13.87
2018-05-29T22:49:08.261Z,14.17
2018-05-29T22:51:36.084Z,14.93
2018-05-29T22:54:03.674Z,14.67
2018-05-29T22:56:31.267Z,13.43
2018-05-29T22:58:58.895Z,14.10
2018-05-29T23:01:26.724Z,13.90
2018-05-29T23:03:54.348Z,12.80
2018-05-29T23:06:22.049Z,12.00
2018-05-29T23:08:49.636Z,13.30
2018-05-29T23:11:17.278Z,13.47
2018-05-29T23:13:44.872Z,13.50
2018-05-29T23:16:12.513Z,12.23
2018-05-29T23:18:40.593Z,12.40
2018-05-29T23:21:08.401Z,11.90
2018-05-29T23:23:35.981Z,10.97
2018-05-29T23:26:04.024Z,12.37
2018-05-29T23:28:31.599Z,12.70
2018-05-29T23:30:59.168Z,12.57
2018-05-29T23:33:26.760Z,13.50
2018-05-29T23:35:54.333Z,14.23
2018-05-29T23:38:22.165Z,15.17
2018-05-29T23:40:49.799Z,16.00
2018-05-29T23:43:17.640Z,18.53
2018-05-29T23:45:45.251Z,19.10
2018-05-29T23:48:13.068Z,20.10
2018-05-29T23:50:40.726Z,21.17
2018-05-29T23:53:08.431Z,20.73
2018-05-29T23:55:36.243Z,21.20
2018-05-29T23:58:03.845Z,21.97
